createdAt,value
2023-01-09T00:01:47.507Z,8.87
2023-01-09T00:04:36.037Z,8.88
2023-01-09T00:07:24.516Z,8.84
2023-01-09T00:10:15.397Z,8.79
2023-01-09T00:13:03.942Z,9.08
2023-01-09T00:15:52.460Z,9.04
2023-01-09T00:18:42.322Z,9.05
2023-01-09T00:21:30.802Z,8.99
2023-01-09T00:24:20.427Z,8.91
2023-01-09T00:27:08.924Z,8.99
2023-01-09T00:29:57.410Z,9.02
2023-01-09T00:32:46.292Z,9.13
2023-01-09T00:35:36.362Z,9.10
2023-01-09T00:38:24.866Z,9.07
2023-01-09T00:41:16.190Z,9.00
2023-01-09T00:44:08.693Z,9.17
2023-01-09T00:47:00.302Z,8.89
2023-01-09T00:49:49.061Z,9.09
2023-01-09T00:52:40.898Z,9.08
2023-01-09T00:55:29.382Z,9.11
2023-01-09T00:58:18.240Z,9.04
2023-01-09T01:01:07.287Z,9.09
2023-01-09T01:03:56.136Z,9.08
2023-01-09T01:07:13.702Z,9.09
2023-01-09T01:10:03.708Z,9.11
2023-01-09T01:12:53.121Z,9.18
2023-01-09T01:15:42.896Z,9.21
2023-01-09T01:18:31.335Z,9.21
2023-01-09T01:21:19.968Z,9.19
2023-01-09T01:24:08.429Z,9.26
2023-01-09T01:26:58.272Z,9.41
2023-01-09T01:29:46.843Z,9.33
2023-01-09T01:32:35.333Z,9.31
2023-01-09T01:35:24.288Z,9.29
2023-01-09T01:38:12.777Z,9.27
2023-01-09T01:41:02.249Z,9.26
2023-01-09T01:43:54.264Z,9.26
2023-01-09T01:46:42.709Z,8.91
2023-01-09T01:49:31.371Z,9.25
2023-01-09T01:52:20.989Z,9.29
2023-01-09T01:55:10.992Z,9.21
2023-01-09T01:58:02.858Z,9.20
2023-01-09T02:00:52.955Z,9.35
2023-01-09T02:03:42.845Z,9.32
2023-01-09T02:06:31.783Z,9.25
2023-01-09T02:09:22.798Z,9.34
2023-01-09T02:12:18.928Z,9.40
2023-01-09T02:15:09.819Z,9.47
2023-01-09T02:18:20.938Z,9.48
2023-01-09T02:21:15.698Z,9.41
2023-01-09T02:24:21.305Z,9.34
2023-01-09T02:27:28.400Z,9.32
2023-01-09T02:30:38.747Z,9.32
2023-01-09T02:33:39.441Z,9.26
2023-01-09T02:36:32.720Z,9.30
2023-01-09T02:39:25.625Z,8.96
2023-01-09T02:42:17.239Z,9.41
2023-01-09T02:45:06.463Z,9.48
2023-01-09T02:47:56.298Z,9.42
2023-01-09T02:50:49.544Z,9.42
2023-01-09T02:53:50.419Z,9.42
2023-01-09T02:56:53.912Z,9.29
2023-01-09T02:59:53.906Z,9.30
2023-01-09T03:02:47.173Z,9.15
2023-01-09T03:05:42.033Z,9.10
2023-01-09T03:08:36.193Z,8.94
2023-01-09T03:11:25.902Z,8.63
2023-01-09T03:14:17.369Z,8.52
2023-01-09T03:17:09.131Z,8.41
2023-01-09T03:19:58.440Z,8.27
2023-01-09T03:22:54.898Z,8.18
2023-01-09T03:25:43.364Z,8.09
2023-01-09T03:28:31.861Z,7.92
2023-01-09T03:31:20.380Z,7.94
2023-01-09T03:34:08.981Z,7.94
2023-01-09T03:36:57.452Z,7.85
2023-01-09T03:39:47.309Z,7.86
2023-01-09T03:42:35.791Z,7.76
2023-01-09T03:45:24.217Z,7.82
2023-01-09T03:48:12.655Z,7.78
2023-01-09T03:51:01.145Z,7.68
2023-01-09T03:53:49.617Z,7.54
2023-01-09T03:56:39.422Z,7.64
2023-01-09T03:59:27.927Z,7.61
2023-01-09T04:02:16.535Z,7.51
2023-01-09T04:05:05.593Z,7.58
2023-01-09T04:07:54.017Z,7.53
2023-01-09T04:10:45.330Z,7.61
2023-01-09T04:13:35.144Z,7.56
2023-01-09T04:16:23.598Z,7.45
2023-01-09T04:19:12.065Z,7.48
2023-01-09T04:22:00.564Z,7.49
2023-01-09T04:24:49.032Z,7.54
2023-01-09T04:27:37.667Z,7.51
2023-01-09T04:30:27.458Z,7.24
2023-01-09T04:33:15.882Z,7.39
2023-01-09T04:36:04.706Z,7.42
2023-01-09T04:38:53.268Z,7.36
2023-01-09T04:41:50.468Z,7.40
2023-01-09T04:44:38.981Z,7.49
2023-01-09T04:47:30.986Z,7.51
2023-01-09T04:50:19.582Z,7.56
2023-01-09T04:53:08.030Z,7.50
2023-01-09T04:55:56.483Z,7.53
2023-01-09T04:58:44.924Z,7.52
2023-01-09T05:01:33.516Z,7.44
2023-01-09T05:04:23.381Z,7.55
2023-01-09T05:07:11.844Z,7.51
2023-01-09T05:10:00.300Z,7.36
2023-01-09T05:12:48.733Z,7.45
2023-01-09T05:15:37.301Z,7.40
2023-01-09T05:18:25.789Z,7.45
2023-01-09T05:21:15.641Z,7.49
2023-01-09T05:24:04.121Z,7.59
2023-01-09T05:26:52.564Z,7.51
2023-01-09T05:29:41.027Z,7.42
2023-01-09T05:32:29.499Z,7.44
2023-01-09T05:35:18.053Z,7.47
2023-01-09T05:38:08.267Z,7.23
2023-01-09T05:40:56.724Z,7.34
2023-01-09T05:43:45.242Z,7.34
2023-01-09T05:46:33.774Z,7.22
2023-01-09T05:49:22.243Z,7.15
2023-01-09T05:52:10.681Z,7.18
2023-01-09T05:55:00.519Z,7.30
2023-01-09T05:57:49.137Z,7.25
2023-01-09T06:00:37.632Z,7.28
2023-01-09T06:03:26.080Z,7.31
2023-01-09T06:06:14.619Z,7.39
2023-01-09T06:09:03.629Z,7.43
2023-01-09T06:11:54.688Z,7.24
2023-01-09T06:14:43.111Z,7.51
2023-01-09T06:17:31.599Z,7.64
2023-01-09T06:20:20.224Z,7.65
2023-01-09T06:23:08.724Z,7.68
2023-01-09T06:25:57.169Z,7.78
2023-01-09T06:28:46.967Z,8.04
2023-01-09T06:31:35.567Z,8.27
2023-01-09T06:34:24.090Z,8.27
2023-01-09T06:37:12.626Z,8.06
2023-01-09T06:40:01.068Z,8.13
2023-01-09T06:42:50.280Z,8.27
2023-01-09T06:45:40.096Z,8.53
2023-01-09T06:48:28.581Z,8.37
2023-01-09T06:51:17.092Z,8.23
2023-01-09T06:54:05.653Z,8.12
2023-01-09T06:56:54.099Z,8.05
2023-01-09T06:59:42.716Z,8.09
2023-01-09T07:02:32.469Z,8.07
2023-01-09T07:05:20.935Z,7.76
2023-01-09T07:08:09.784Z,7.77
2023-01-09T07:10:59.094Z,7.71
2023-01-09T07:13:47.552Z,7.90
2023-01-09T07:16:36.003Z,7.94
2023-01-09T07:19:26.013Z,7.81
2023-01-09T07:22:14.578Z,7.90
2023-01-09T07:25:03.039Z,7.92
2023-01-09T07:27:51.569Z,7.98
2023-01-09T07:30:40.105Z,7.99
2023-01-09T07:33:28.621Z,8.00
2023-01-09T07:36:18.451Z,8.06
2023-01-09T07:39:06.915Z,8.04
2023-01-09T07:41:55.414Z,8.02
2023-01-09T07:44:43.861Z,8.01
2023-01-09T07:47:32.350Z,8.06
2023-01-09T07:50:20.794Z,8.03
2023-01-09T07:53:10.618Z,8.17
2023-01-09T07:55:59.077Z,8.13
2023-01-09T07:58:47.586Z,8.11
2023-01-09T08:01:36.251Z,8.15
2023-01-09T08:04:25.088Z,8.24
2023-01-09T08:07:13.650Z,8.33
2023-01-09T08:10:03.470Z,8.38
2023-01-09T08:12:52.141Z,8.49
2023-01-09T08:15:40.644Z,8.58
2023-01-09T08:18:29.170Z,9.03
2023-01-09T08:21:17.670Z,9.36
2023-01-09T08:24:06.572Z,9.65
2023-01-09T08:26:56.391Z,10.02
2023-01-09T08:29:44.851Z,10.14
2023-01-09T08:32:33.304Z,10.25
2023-01-09T08:35:22.164Z,10.28
2023-01-09T08:38:11.050Z,10.28
2023-01-09T08:40:59.516Z,10.46
2023-01-09T08:44:06.986Z,10.61
2023-01-09T08:47:07.256Z,10.21
2023-01-09T08:49:57.799Z,9.97
2023-01-09T08:52:46.267Z,9.75
2023-01-09T08:55:34.770Z,9.59
2023-01-09T08:58:23.263Z,9.60
2023-01-09T09:01:13.148Z,9.51
2023-01-09T09:04:01.604Z,9.56
2023-01-09T09:06:50.121Z,9.71
2023-01-09T09:09:38.556Z,9.61
2023-01-09T09:12:27.059Z,9.55
2023-01-09T09:15:23.430Z,9.69
2023-01-09T09:18:13.315Z,9.73
2023-01-09T09:21:01.821Z,9.54
2023-01-09T09:23:50.246Z,9.40
2023-01-09T09:26:38.724Z,9.46
2023-01-09T09:29:27.250Z,9.44
2023-01-09T09:32:15.928Z,9.38
2023-01-09T09:35:06.488Z,9.30
2023-01-09T09:37:56.290Z,9.61
2023-01-09T09:40:59.325Z,9.63
2023-01-09T09:44:25.187Z,9.81
2023-01-09T09:47:24.517Z,9.73
2023-01-09T09:50:27.070Z,9.67
2023-01-09T09:53:20.072Z,9.58
2023-01-09T09:56:11.638Z,9.79
2023-01-09T09:59:03.656Z,9.77
2023-01-09T10:01:56.116Z,9.76
2023-01-09T10:04:50.069Z,9.79
2023-01-09T10:07:44.563Z,9.82
2023-01-09T10:10:37.234Z,9.60
2023-01-09T10:13:43.778Z,9.85
2023-01-09T10:16:43.021Z,9.91
2023-01-09T10:19:47.827Z,9.95
2023-01-09T10:22:45.679Z,10.26
2023-01-09T10:25:42.745Z,10.57
2023-01-09T10:28:49.890Z,10.66
2023-01-09T10:31:46.311Z,10.58
2023-01-09T10:34:46.654Z,10.42
2023-01-09T10:37:38.297Z,10.36
2023-01-09T10:40:31.405Z,10.31
2023-01-09T10:43:28.948Z,10.25
2023-01-09T10:46:20.359Z,10.29
2023-01-09T10:49:12.297Z,10.24
2023-01-09T10:52:06.729Z,10.19
2023-01-09T10:54:57.240Z,10.05
2023-01-09T10:57:49.889Z,9.82
2023-01-09T11:00:40.058Z,9.83
2023-01-09T11:03:29.293Z,9.97
2023-01-09T11:06:22.227Z,8.47
2023-01-09T11:09:10.706Z,10.02
2023-01-09T11:11:59.128Z,10.09
2023-01-09T11:14:48.968Z,10.37
2023-01-09T11:17:37.445Z,10.32
2023-01-09T11:20:28.707Z,10.50
2023-01-09T11:23:32.307Z,10.33
2023-01-09T11:26:25.677Z,10.36
2023-01-09T11:29:15.723Z,10.23
2023-01-09T11:32:05.679Z,9.99
2023-01-09T11:34:54.177Z,9.83
2023-01-09T11:37:42.885Z,9.61
2023-01-09T11:40:36.997Z,9.43
2023-01-09T11:43:32.670Z,9.25
2023-01-09T11:46:35.695Z,9.13
2023-01-09T11:49:28.190Z,9.01
2023-01-09T11:52:19.555Z,8.97
2023-01-09T11:55:13.120Z,8.81
2023-01-09T11:58:01.598Z,8.95
2023-01-09T12:00:56.230Z,8.88
2023-01-09T12:04:09.507Z,8.90
2023-01-09T12:07:24.437Z,9.09
2023-01-09T12:10:26.998Z,9.29
2023-01-09T12:13:26.259Z,9.46
2023-01-09T12:16:20.636Z,9.40
2023-01-09T12:19:21.437Z,9.39
2023-01-09T12:22:17.599Z,9.23
2023-01-09T12:25:23.470Z,9.35
2023-01-09T12:28:39.563Z,9.28
2023-01-09T12:31:39.286Z,9.39
2023-01-09T12:34:41.769Z,9.31
2023-01-09T12:37:46.627Z,9.06
2023-01-09T12:40:47.584Z,9.13
2023-01-09T12:43:43.514Z,9.13
2023-01-09T12:46:37.270Z,9.11
2023-01-09T12:49:30.139Z,9.03
2023-01-09T12:52:23.273Z,9.00
2023-01-09T12:55:18.364Z,8.97
2023-01-09T12:58:13.911Z,9.01
2023-01-09T13:01:07.243Z,8.93
2023-01-09T13:04:10.602Z,8.83
2023-01-09T13:07:02.589Z,8.81
2023-01-09T13:09:54.428Z,8.84
2023-01-09T13:12:47.034Z,8.85
2023-01-09T13:15:38.937Z,8.39
2023-01-09T13:18:32.330Z,8.76
2023-01-09T13:21:20.982Z,8.63
2023-01-09T13:24:16.579Z,8.55
2023-01-09T13:27:07.582Z,8.72
2023-01-09T13:30:04.909Z,8.74
2023-01-09T13:33:00.008Z,8.74
2023-01-09T13:35:50.934Z,8.67
2023-01-09T13:38:39.666Z,8.75
2023-01-09T13:41:46.604Z,8.77
2023-01-09T13:44:35.155Z,8.56
2023-01-09T13:47:27.858Z,8.84
2023-01-09T13:50:25.051Z,8.83
2023-01-09T13:53:46.899Z,8.80
2023-01-09T13:57:17.907Z,8.82
2023-01-09T14:00:43.868Z,8.84
2023-01-09T14:03:38.065Z,8.82
2023-01-09T14:06:28.058Z,8.98
2023-01-09T14:09:20.309Z,8.93
2023-01-09T14:12:08.896Z,8.90
2023-01-09T14:15:02.007Z,8.84
2023-01-09T14:17:59.893Z,8.29
2023-01-09T14:20:55.900Z,8.57
2023-01-09T14:23:53.341Z,8.54
2023-01-09T14:26:45.549Z,8.21
2023-01-09T14:29:43.424Z,8.00
2023-01-09T14:32:45.169Z,7.77
2023-01-09T14:35:42.166Z,7.54
2023-01-09T14:38:33.609Z,7.37
2023-01-09T14:41:39.666Z,6.81
2023-01-09T14:44:30.621Z,6.92
2023-01-09T14:47:22.505Z,6.88
2023-01-09T14:50:18.466Z,6.85
2023-01-09T14:53:08.970Z,6.83
2023-01-09T14:56:00.305Z,6.78
2023-01-09T14:58:50.761Z,6.79
2023-01-09T15:01:41.341Z,6.89
2023-01-09T15:04:34.811Z,6.85
2023-01-09T15:07:25.902Z,6.78
2023-01-09T15:10:17.847Z,6.78
2023-01-09T15:13:08.995Z,6.91
2023-01-09T15:15:57.652Z,6.78
2023-01-09T15:18:49.129Z,6.81
2023-01-09T15:21:37.655Z,6.78
2023-01-09T15:24:28.684Z,6.75
2023-01-09T15:27:19.146Z,6.69
2023-01-09T15:30:19.045Z,6.69
2023-01-09T15:33:12.463Z,6.67
2023-01-09T15:36:02.562Z,6.66
2023-01-09T15:38:51.830Z,6.64
2023-01-09T15:41:57.754Z,6.59
2023-01-09T15:44:48.362Z,6.58
2023-01-09T15:47:38.219Z,6.61
2023-01-09T15:50:28.707Z,6.55
2023-01-09T15:53:18.938Z,6.45
2023-01-09T15:56:16.624Z,6.50
2023-01-09T15:59:23.564Z,6.57
2023-01-09T16:02:31.990Z,6.57
2023-01-09T16:05:22.102Z,6.63
2023-01-09T16:08:21.505Z,6.67
2023-01-09T16:11:11.204Z,6.58
2023-01-09T16:14:11.016Z,6.69
2023-01-09T16:17:01.170Z,6.77
2023-01-09T16:19:51.485Z,6.79
2023-01-09T16:22:54.161Z,6.79
2023-01-09T16:25:42.655Z,6.91
2023-01-09T16:28:31.281Z,6.89
2023-01-09T16:31:23.746Z,6.92
2023-01-09T16:34:13.547Z,6.91
2023-01-09T16:37:03.349Z,6.97
2023-01-09T16:40:31.993Z,6.90
2023-01-09T16:43:20.909Z,6.89
2023-01-09T16:46:09.665Z,6.74
2023-01-09T16:48:58.226Z,6.77
2023-01-09T16:51:46.882Z,6.91
2023-01-09T16:54:35.330Z,6.71
2023-01-09T16:57:23.894Z,6.84
2023-01-09T17:00:18.142Z,6.85
2023-01-09T17:03:06.751Z,6.91
2023-01-09T17:05:57.308Z,6.86
2023-01-09T17:08:46.942Z,6.84
2023-01-09T17:11:35.415Z,6.85
2023-01-09T17:14:24.526Z,6.90
2023-01-09T17:17:14.412Z,6.80
2023-01-09T17:20:07.395Z,6.76
2023-01-09T17:22:55.982Z,6.81
2023-01-09T17:26:02.085Z,6.83
2023-01-09T17:28:51.941Z,6.74
2023-01-09T17:31:40.513Z,6.58
2023-01-09T17:34:30.344Z,6.73
2023-01-09T17:37:20.175Z,6.71
2023-01-09T17:40:16.309Z,6.64
2023-01-09T17:43:04.855Z,6.48
2023-01-09T17:45:53.376Z,6.55
2023-01-09T17:48:41.849Z,6.45
2023-01-09T17:51:31.821Z,6.41
2023-01-09T17:54:21.448Z,6.38
2023-01-09T17:57:12.216Z,6.27
2023-01-09T18:00:00.771Z,6.27
2023-01-09T18:02:49.587Z,6.33
2023-01-09T18:05:38.215Z,6.32
2023-01-09T18:08:28.211Z,6.30
2023-01-09T18:11:18.229Z,6.35
2023-01-09T18:14:06.739Z,6.40
2023-01-09T18:16:55.403Z,6.40
2023-01-09T18:19:44.292Z,6.38
2023-01-09T18:22:33.895Z,6.39
2023-01-09T18:25:23.688Z,6.45
2023-01-09T18:28:15.205Z,6.29
2023-01-09T18:31:03.911Z,6.37
2023-01-09T18:33:53.829Z,6.41
2023-01-09T18:36:42.427Z,6.45
2023-01-09T18:39:31.107Z,6.44
2023-01-09T18:42:21.035Z,6.40
2023-01-09T18:45:10.763Z,6.42
2023-01-09T18:47:59.415Z,6.52
2023-01-09T18:50:48.056Z,6.47
2023-01-09T18:53:36.538Z,6.34
2023-01-09T18:56:25.550Z,6.49
2023-01-09T18:59:15.545Z,6.47
2023-01-09T19:02:04.133Z,6.08
2023-01-09T19:04:53.311Z,6.48
2023-01-09T19:07:41.834Z,6.44
2023-01-09T19:10:30.421Z,6.46
2023-01-09T19:13:19.000Z,6.39
2023-01-09T19:16:09.883Z,6.60
2023-01-09T19:19:01.941Z,6.54
2023-01-09T19:21:50.454Z,6.66
2023-01-09T19:24:38.976Z,6.57
2023-01-09T19:27:29.611Z,6.58
2023-01-09T19:30:18.902Z,6.54
2023-01-09T19:33:09.083Z,6.55
2023-01-09T19:35:57.634Z,6.58
2023-01-09T19:38:46.203Z,6.61
2023-01-09T19:41:34.717Z,6.61
2023-01-09T19:44:23.289Z,6.59
2023-01-09T19:47:14.025Z,6.56
2023-01-09T19:50:05.225Z,6.44
2023-01-09T19:52:53.917Z,6.51
2023-01-09T19:55:42.725Z,6.56
2023-01-09T19:58:31.179Z,6.53
2023-01-09T20:01:22.153Z,6.52
2023-01-09T20:04:14.961Z,6.54
2023-01-09T20:07:06.014Z,6.53
2023-01-09T20:09:54.541Z,6.44
2023-01-09T20:12:45.416Z,6.58
2023-01-09T20:15:34.003Z,6.65
2023-01-09T20:18:22.474Z,6.53
2023-01-09T20:21:11.315Z,6.54
2023-01-09T20:24:02.243Z,6.46
2023-01-09T20:26:51.485Z,6.46
2023-01-09T20:29:39.964Z,6.48
2023-01-09T20:32:29.933Z,6.63
2023-01-09T20:35:18.437Z,6.36
2023-01-09T20:38:08.987Z,6.64
2023-01-09T20:40:58.899Z,6.63
2023-01-09T20:43:47.371Z,6.61
2023-01-09T20:46:37.949Z,6.58
2023-01-09T20:49:26.444Z,6.60
2023-01-09T20:52:15.048Z,6.59
2023-01-09T20:55:04.677Z,6.55
2023-01-09T20:57:54.638Z,6.78
2023-01-09T21:00:43.170Z,6.79
2023-01-09T21:03:31.777Z,6.78
2023-01-09T21:06:21.795Z,6.88
2023-01-09T21:09:10.291Z,6.89
2023-01-09T21:11:58.884Z,6.78
2023-01-09T21:14:48.732Z,6.83
2023-01-09T21:17:38.150Z,6.89
2023-01-09T21:20:26.667Z,6.80
2023-01-09T21:23:15.185Z,6.97
2023-01-09T21:26:09.217Z,6.98
2023-01-09T21:28:58.656Z,6.89
2023-01-09T21:31:48.576Z,6.87
2023-01-09T21:34:37.237Z,6.97
2023-01-09T21:37:25.767Z,6.94
2023-01-09T21:40:16.678Z,6.87
2023-01-09T21:43:22.701Z,6.82
2023-01-09T21:46:31.841Z,6.80
2023-01-09T21:49:23.136Z,6.14
2023-01-09T21:52:12.798Z,6.80
2023-01-09T21:55:01.249Z,6.74
2023-01-09T21:57:49.761Z,6.66
2023-01-09T22:00:39.049Z,6.55
2023-01-09T22:03:28.020Z,6.51
2023-01-09T22:06:17.881Z,6.65
2023-01-09T22:09:06.320Z,6.61
2023-01-09T22:11:54.920Z,6.57
2023-01-09T22:14:43.547Z,6.41
2023-01-09T22:17:32.185Z,6.30
2023-01-09T22:20:20.740Z,6.49
2023-01-09T22:23:10.664Z,6.48
2023-01-09T22:26:00.576Z,6.47
2023-01-09T22:28:49.538Z,6.42
2023-01-09T22:31:39.848Z,6.38
2023-01-09T22:34:29.087Z,6.41
2023-01-09T22:37:17.606Z,6.42
2023-01-09T22:40:08.905Z,6.47
2023-01-09T22:42:57.440Z,6.42
2023-01-09T22:45:45.973Z,6.38
2023-01-09T22:48:34.742Z,6.41
2023-01-09T22:51:26.106Z,6.42
2023-01-09T22:54:14.662Z,6.26
2023-01-09T22:57:04.609Z,6.44
2023-01-09T22:59:53.137Z,6.36
2023-01-09T23:02:41.693Z,6.52
2023-01-09T23:05:30.226Z,5.75
2023-01-09T23:08:18.684Z,6.57
2023-01-09T23:11:09.241Z,6.54
2023-01-09T23:13:59.088Z,6.48
2023-01-09T23:16:47.582Z,6.30
2023-01-09T23:19:36.268Z,6.45
2023-01-09T23:22:25.887Z,6.39
2023-01-09T23:25:15.643Z,6.59
2023-01-09T23:28:04.112Z,6.64
2023-01-09T23:30:54.266Z,6.61
2023-01-09T23:33:42.738Z,6.61
2023-01-09T23:36:31.278Z,6.64
2023-01-09T23:39:19.754Z,6.50
2023-01-09T23:42:25.824Z,6.57
2023-01-09T23:45:14.256Z,6.57
2023-01-09T23:48:04.142Z,6.58
2023-01-09T23:50:54.404Z,6.60
2023-01-09T23:53:42.851Z,6.47
2023-01-09T23:56:33.828Z,6.62
2023-01-09T23:59:22.269Z,6.55
